createdAt,value
2023-02-03T00:01:20.959Z,1.20
2023-02-03T00:06:28.673Z,1.00
2023-02-03T00:11:37.041Z,1.20
2023-02-03T00:16:45.266Z,1.20
2023-02-03T00:21:53.686Z,0.90
2023-02-03T00:27:01.950Z,1.10
2023-02-03T00:32:10.778Z,1.20
2023-02-03T00:37:19.520Z,1.30
2023-02-03T00:42:26.883Z,1.00
2023-02-03T00:47:35.162Z,1.30
2023-02-03T00:52:42.509Z,1.30
2023-02-03T00:57:50.148Z,1.10
2023-02-03T01:02:58.247Z,0.70
2023-02-03T01:08:06.893Z,1.00
2023-02-03T01:13:15.128Z,0.90
2023-02-03T01:18:23.789Z,1.00
2023-02-03T01:23:32.281Z,1.20
2023-02-03T01:28:40.947Z,1.10
2023-02-03T01:33:49.821Z,1.10
2023-02-03T01:38:58.862Z,1.00
2023-02-03T01:44:41.363Z,0.80
2023-02-03T01:55:02.502Z,0.70
2023-02-03T02:00:13.064Z,1.00
2023-02-03T02:05:32.339Z,1.40
2023-02-03T02:10:40.202Z,1.00
2023-02-03T02:15:56.900Z,1.60
2023-02-03T02:21:24.489Z,1.70
2023-02-03T02:26:58.838Z,1.50
2023-02-03T02:32:17.481Z,1.50
2023-02-03T02:37:33.292Z,1.70
2023-02-03T02:42:55.325Z,1.20
2023-02-03T02:48:11.444Z,1.10
2023-02-03T02:53:22.197Z,1.80
2023-02-03T02:58:33.973Z,1.80
2023-02-03T03:03:45.014Z,2.10
2023-02-03T03:08:58.670Z,1.80
2023-02-03T03:14:08.334Z,2.00
2023-02-03T03:19:20.982Z,1.50
2023-02-03T03:24:33.103Z,1.40
2023-02-03T03:29:48.775Z,1.90
2023-02-03T03:34:57.197Z,1.90
2023-02-03T03:40:11.589Z,2.00
2023-02-03T03:45:25.862Z,2.20
2023-02-03T03:50:37.081Z,1.70
2023-02-03T03:55:49.990Z,2.20
2023-02-03T04:01:02.573Z,1.60
2023-02-03T04:06:11.711Z,2.20
2023-02-03T04:11:34.134Z,1.90
2023-02-03T04:16:42.459Z,1.80
2023-02-03T04:21:50.813Z,1.50
2023-02-03T04:26:59.015Z,1.70
2023-02-03T04:32:07.783Z,1.80
2023-02-03T04:37:16.267Z,2.00
2023-02-03T04:42:25.156Z,1.70
2023-02-03T04:47:33.378Z,1.90
2023-02-03T04:52:41.623Z,2.00
2023-02-03T04:57:49.952Z,2.20
2023-02-03T05:02:58.352Z,2.30
2023-02-03T05:08:07.251Z,2.50
2023-02-03T05:13:16.490Z,1.90
2023-02-03T05:18:24.870Z,1.60
2023-02-03T05:23:35.471Z,1.80
2023-02-03T05:28:46.230Z,1.40
2023-02-03T05:33:54.890Z,1.80
2023-02-03T05:39:02.606Z,1.60
2023-02-03T05:44:10.219Z,1.70
2023-02-03T05:49:19.997Z,1.50
2023-02-03T05:54:28.578Z,1.50
2023-02-03T05:59:35.977Z,2.00
2023-02-03T06:04:43.229Z,2.30
2023-02-03T06:09:51.594Z,2.50
2023-02-03T06:15:00.089Z,2.10
2023-02-03T06:20:10.748Z,3.80
2023-02-03T06:25:19.121Z,2.30
2023-02-03T06:30:27.708Z,2.20
2023-02-03T06:35:36.510Z,2.20
2023-02-03T06:40:44.922Z,2.90
2023-02-03T06:45:53.109Z,2.70
2023-02-03T06:51:01.988Z,2.10
2023-02-03T06:56:10.604Z,3.30
2023-02-03T07:01:19.084Z,2.40
2023-02-03T07:06:29.650Z,2.20
2023-02-03T07:11:38.909Z,2.50
2023-02-03T07:16:47.126Z,2.20
2023-02-03T07:21:55.210Z,2.40
2023-02-03T07:27:04.586Z,3.10
2023-02-03T07:32:12.564Z,2.40
2023-02-03T07:37:20.234Z,2.20
2023-02-03T07:42:27.850Z,2.80
2023-02-03T07:47:37.262Z,2.80
2023-02-03T07:52:44.838Z,2.40
2023-02-03T07:57:52.408Z,2.90
2023-02-03T08:03:00.783Z,2.70
2023-02-03T08:08:09.237Z,3.20
2023-02-03T08:13:18.096Z,3.00
2023-02-03T08:18:26.723Z,3.20
2023-02-03T08:23:34.966Z,2.50
2023-02-03T08:28:43.219Z,3.20
2023-02-03T08:33:51.409Z,2.80
2023-02-03T08:39:00.213Z,2.60
2023-02-03T08:44:08.829Z,2.90
2023-02-03T08:49:16.914Z,2.40
2023-02-03T08:54:25.753Z,2.20
2023-02-03T08:59:36.436Z,2.10
2023-02-03T09:04:44.888Z,2.40
2023-02-03T09:09:54.282Z,2.40
2023-02-03T09:15:02.902Z,2.50
2023-02-03T09:20:13.810Z,2.40
2023-02-03T09:25:21.288Z,2.50
2023-02-03T09:30:29.781Z,3.00
2023-02-03T09:35:38.695Z,4.20
2023-02-03T09:40:49.165Z,3.80
2023-02-03T09:45:56.630Z,3.80
2023-02-03T09:51:04.312Z,3.10
2023-02-03T09:56:20.532Z,3.60
2023-02-03T10:01:33.519Z,3.80
2023-02-03T10:06:45.321Z,3.30
2023-02-03T10:12:07.829Z,3.80
2023-02-03T10:17:29.561Z,3.20
2023-02-03T10:22:43.034Z,2.90
2023-02-03T10:27:51.605Z,2.90
2023-02-03T10:33:04.066Z,3.30
2023-02-03T10:38:21.774Z,2.50
2023-02-03T10:43:50.463Z,2.80
2023-02-03T10:48:59.852Z,2.90
2023-02-03T10:54:23.946Z,2.70
2023-02-03T10:59:35.828Z,3.90
2023-02-03T11:04:44.054Z,3.30
2023-02-03T11:09:52.563Z,4.00
2023-02-03T11:15:17.257Z,3.90
2023-02-03T11:20:28.132Z,4.30
2023-02-03T11:25:36.978Z,4.40
2023-02-03T11:30:44.536Z,3.80
2023-02-03T11:36:00.916Z,5.00
2023-02-03T11:41:16.975Z,5.00
2023-02-03T11:46:25.838Z,4.80
2023-02-03T11:51:43.807Z,4.20
2023-02-03T11:57:18.662Z,4.90
2023-02-03T12:03:00.139Z,5.70
2023-02-03T12:08:20.329Z,5.20
2023-02-03T12:13:49.510Z,4.90
2023-02-03T12:19:11.567Z,5.20
2023-02-03T12:29:39.077Z,4.90
2023-02-03T12:34:52.477Z,6.30
2023-02-03T12:40:05.500Z,6.50
2023-02-03T12:45:20.354Z,6.60
2023-02-03T12:50:34.494Z,6.40
2023-02-03T12:55:45.857Z,5.90
2023-02-03T13:01:00.474Z,7.60
2023-02-03T13:06:18.460Z,6.40
2023-02-03T13:11:32.199Z,5.80
2023-02-03T13:16:45.608Z,4.40
2023-02-03T13:21:54.439Z,6.00
2023-02-03T13:27:22.781Z,4.80
2023-02-03T13:32:46.798Z,4.80
2023-02-03T13:38:29.715Z,5.40
2023-02-03T13:43:41.405Z,6.30
2023-02-03T13:48:50.740Z,5.00
2023-02-03T13:54:04.730Z,5.20
2023-02-03T13:59:33.496Z,6.00
2023-02-03T14:04:58.569Z,4.50
2023-02-03T14:10:23.813Z,4.80
2023-02-03T14:15:40.173Z,4.70
2023-02-03T14:21:08.061Z,5.00
2023-02-03T14:26:41.756Z,4.90
2023-02-03T14:32:03.025Z,6.00
2023-02-03T14:37:33.124Z,4.70
2023-02-03T14:43:19.142Z,5.20
2023-02-03T14:48:45.064Z,4.50
2023-02-03T14:54:19.410Z,5.70
2023-02-03T14:59:33.408Z,5.10
2023-02-03T15:04:41.168Z,5.20
2023-02-03T15:09:51.827Z,5.60
2023-02-03T15:15:21.786Z,5.30
2023-02-03T15:20:50.023Z,5.80
2023-02-03T15:26:02.894Z,5.20
2023-02-03T15:31:20.429Z,4.60
2023-02-03T15:36:42.287Z,4.80
2023-02-03T15:41:57.541Z,4.90
2023-02-03T15:47:09.505Z,6.90
2023-02-03T15:52:22.860Z,6.10
2023-02-03T15:57:35.087Z,5.40
2023-02-03T16:02:47.795Z,7.00
2023-02-03T16:07:56.507Z,6.00
2023-02-03T16:13:25.903Z,6.40
2023-02-03T16:18:36.398Z,7.40
2023-02-03T16:23:54.186Z,5.40
2023-02-03T16:29:35.718Z,5.00
2023-02-03T16:35:01.833Z,4.90
2023-02-03T16:40:30.928Z,4.50
2023-02-03T16:45:56.734Z,4.60
2023-02-03T16:51:13.772Z,4.60
2023-02-03T16:56:21.419Z,6.00
2023-02-03T17:01:32.877Z,7.80
2023-02-03T17:06:44.517Z,7.30
2023-02-03T17:11:54.043Z,8.60
2023-02-03T17:17:02.973Z,8.90
2023-02-03T17:22:14.730Z,10.60
2023-02-03T17:27:22.490Z,9.10
2023-02-03T17:32:31.516Z,9.50
2023-02-03T17:37:40.236Z,8.40
2023-02-03T17:53:41.471Z,7.80
2023-02-03T17:58:49.405Z,6.60
2023-02-03T18:03:59.366Z,5.30
2023-02-03T18:09:08.427Z,5.20
2023-02-03T18:14:18.531Z,4.30
2023-02-03T18:19:26.035Z,4.30
2023-02-03T18:24:34.255Z,5.30
2023-02-03T18:29:42.818Z,5.10
2023-02-03T18:34:51.225Z,4.90
2023-02-03T18:40:01.288Z,7.20
2023-02-03T18:45:11.316Z,6.60
2023-02-03T18:50:19.908Z,5.60
2023-02-03T18:55:28.820Z,6.50
2023-02-03T19:00:37.442Z,5.80
2023-02-03T19:05:46.700Z,6.30
2023-02-03T19:10:56.508Z,7.50
2023-02-03T19:16:05.178Z,6.40
2023-02-03T19:21:15.134Z,8.70
2023-02-03T19:26:23.658Z,10.60
2023-02-03T19:31:31.809Z,6.60
2023-02-03T19:36:40.754Z,6.60
2023-02-03T19:41:49.666Z,5.70
2023-02-03T19:46:58.077Z,5.90
2023-02-03T19:52:09.499Z,6.00
2023-02-03T19:57:19.171Z,6.00
2023-02-03T20:02:27.764Z,4.80
2023-02-03T20:07:36.430Z,6.50
2023-02-03T20:12:44.607Z,6.30
2023-02-03T20:17:52.670Z,5.70
2023-02-03T20:23:01.208Z,6.10
2023-02-03T20:28:13.788Z,12.70
2023-02-03T20:33:21.638Z,9.20
2023-02-03T20:38:29.266Z,8.10
2023-02-03T20:43:38.411Z,7.40
2023-02-03T20:48:46.516Z,9.60
2023-02-03T20:53:53.976Z,10.10
2023-02-03T20:59:02.103Z,16.80
2023-02-03T21:04:33.752Z,16.90
2023-02-03T21:09:41.223Z,15.20
2023-02-03T21:14:50.855Z,10.40
2023-02-03T21:20:00.060Z,10.50
2023-02-03T21:25:26.062Z,9.00
2023-02-03T21:30:35.530Z,9.30
2023-02-03T21:35:44.259Z,12.10
2023-02-03T21:40:54.319Z,14.20
2023-02-03T21:46:03.217Z,15.70
2023-02-03T21:51:19.377Z,12.10
2023-02-03T21:56:29.188Z,12.70
2023-02-03T22:01:39.562Z,11.90
2023-02-03T22:06:49.529Z,11.10
2023-02-03T22:11:57.938Z,12.60
2023-02-03T22:17:06.161Z,11.40
2023-02-03T22:22:13.972Z,11.50
2023-02-03T22:27:22.744Z,12.20
2023-02-03T22:32:31.082Z,11.10
2023-02-03T22:37:39.201Z,13.10
2023-02-03T22:42:48.315Z,13.60
2023-02-03T22:47:57.605Z,9.40
2023-02-03T22:53:07.369Z,8.60
2023-02-03T22:58:15.484Z,8.10
2023-02-03T23:03:23.493Z,5.60
2023-02-03T23:08:31.621Z,5.90
2023-02-03T23:13:40.471Z,5.10
2023-02-03T23:18:48.894Z,5.90
2023-02-03T23:23:57.076Z,5.80
2023-02-03T23:29:06.026Z,11.50
2023-02-03T23:34:31.297Z,14.60
2023-02-03T23:39:39.503Z,17.80
2023-02-03T23:44:44.777Z,17.80
2023-02-03T23:49:53.076Z,14.60
2023-02-03T23:55:01.412Z,10.10
